Time;durP1;ratioP1;P1;durP2;ratioP2;P2;SDS_P1;SDS_P2;PMS_P1;PMS_P2;Temp;Humidity;BMP_temperature;BMP_pressure;BME280_temperature;BME280_humidity;BME280_pressure;Samples;Min_cycle;Max_cycle;Signal;HPM_P1;HPM_P2
2022/07/15 00:02:13;;;;;;;13.23;4.30;;;;;;;;;;5049973;28;20082;-57
2022/07/15 00:04:39;;;;;;;16.83;3.83;;;;;;;;;;5049598;28;20088;-58
2022/07/15 00:07:06;;;;;;;11.77;4.13;;;;;;;;;;5049786;28;20057;-58
2022/07/15 00:12:17;;;;;;;17.20;5.40;;;;;;;;;;5049815;28;20049;-57
2022/07/15 00:14:44;;;;;;;17.20;4.57;;;;;;;;;;5049531;28;20079;-58
2022/07/15 00:17:10;;;;;;;11.43;4.90;;;;;;;;;;5049838;28;20049;-57
2022/07/15 00:19:36;;;;;;;10.00;4.10;;;;;;;;;;5049795;28;20041;-57
2022/07/15 00:22:02;;;;;;;14.43;3.80;;;;;;;;;;5049521;28;20049;-58
2022/07/15 00:24:29;;;;;;;14.60;5.13;;;;;;;;;;5049248;28;20049;-57
2022/07/15 00:26:55;;;;;;;15.43;5.60;;;;;;;;;;5048987;28;20757;-57
2022/07/15 00:29:21;;;;;;;17.33;4.53;;;;;;;;;;5049646;28;20041;-57
2022/07/15 00:31:47;;;;;;;16.10;5.10;;;;;;;;;;5049187;28;20060;-57
2022/07/15 00:34:13;;;;;;;15.43;4.60;;;;;;;;;;5049102;28;20163;-57
2022/07/15 00:36:39;;;;;;;18.10;4.50;;;;;;;;;;5049684;28;20056;-57
2022/07/15 00:39:06;;;;;;;13.47;4.87;;;;;;;;;;5049187;28;20063;-58
2022/07/15 00:41:38;;;;;;;12.83;4.13;;;;;;;;;;5049238;28;20124;-58
2022/07/15 00:44:05;;;;;;;13.50;4.68;;;;;;;;;;5049037;28;20371;-58
2022/07/15 00:46:31;;;;;;;13.57;4.90;;;;;;;;;;5049122;28;20118;-58
2022/07/15 00:48:58;;;;;;;10.83;4.20;;;;;;;;;;5048684;28;20633;-57
2022/07/15 00:51:24;;;;;;;11.20;3.63;;;;;;;;;;5049131;28;20048;-58
2022/07/15 00:53:50;;;;;;;12.30;3.87;;;;;;;;;;5049023;28;20128;-58
2022/07/15 00:56:18;;;;;;;11.17;4.03;;;;;;;;;;5049177;28;20041;-59
2022/07/15 00:58:44;;;;;;;11.53;3.97;;;;;;;;;;5048813;28;20102;-57
2022/07/15 01:01:11;;;;;;;17.47;4.83;;;;;;;;;;5049188;28;20045;-58
2022/07/15 01:03:37;;;;;;;12.40;4.10;;;;;;;;;;5048382;28;20475;-58
2022/07/15 01:06:03;;;;;;;14.57;4.27;;;;;;;;;;5048566;28;20182;-58
2022/07/15 01:08:30;;;;;;;11.67;3.47;;;;;;;;;;5048732;28;20503;-58
2022/07/15 01:10:56;;;;;;;12.53;4.63;;;;;;;;;;5048798;28;20040;-58
2022/07/15 01:13:22;;;;;;;13.73;3.77;;;;;;;;;;5048117;28;20099;-57
2022/07/15 01:15:49;;;;;;;12.63;4.37;;;;;;;;;;5048431;28;20037;-57
2022/07/15 01:18:15;;;;;;;13.13;4.57;;;;;;;;;;5048933;28;20124;-58
2022/07/15 01:20:48;;;;;;;10.53;4.00;;;;;;;;;;5048583;28;20047;-58
2022/07/15 01:23:14;;;;;;;13.82;4.82;;;;;;;;;;5048717;28;20040;-57
2022/07/15 01:25:41;;;;;;;9.97;4.27;;;;;;;;;;5048067;28;20060;-58
2022/07/15 01:28:08;;;;;;;13.13;4.80;;;;;;;;;;5047864;28;20041;-58
2022/07/15 01:30:35;;;;;;;19.43;4.00;;;;;;;;;;5048426;28;20098;-58
2022/07/15 01:33:02;;;;;;;12.73;3.90;;;;;;;;;;5048184;28;20040;-58
2022/07/15 01:35:31;;;;;;;9.40;3.57;;;;;;;;;;5048090;28;20048;-57
2022/07/15 01:37:57;;;;;;;15.37;3.77;;;;;;;;;;5046962;28;20048;-58
2022/07/15 01:40:23;;;;;;;12.60;3.13;;;;;;;;;;5047911;28;20037;-58
2022/07/15 01:42:49;;;;;;;16.53;2.80;;;;;;;;;;5048119;28;20059;-58
2022/07/15 01:45:15;;;;;;;9.80;3.60;;;;;;;;;;5047998;28;20147;-57
2022/07/15 01:47:42;;;;;;;14.77;3.13;;;;;;;;;;5047679;28;20182;-58
2022/07/15 01:50:08;;;;;;;11.43;3.20;;;;;;;;;;5047986;28;20135;-57
2022/07/15 01:52:34;;;;;;;12.10;3.40;;;;;;;;;;5048352;28;20132;-57
2022/07/15 01:55:00;;;;;;;19.60;3.77;;;;;;;;;;5047718;28;20146;-57
2022/07/15 01:57:26;;;;;;;9.10;2.93;;;;;;;;;;5047574;28;20057;-58
2022/07/15 01:59:52;;;;;;;12.83;2.90;;;;;;;;;;5047986;28;20490;-58
2022/07/15 02:02:18;;;;;;;8.43;3.03;;;;;;;;;;5047482;28;20045;-58
2022/07/15 02:04:44;;;;;;;11.43;3.30;;;;;;;;;;5047460;28;20083;-58
2022/07/15 02:07:10;;;;;;;9.13;3.33;;;;;;;;;;5048075;28;20049;-58
2022/07/15 02:09:36;;;;;;;12.77;3.47;;;;;;;;;;5047795;28;20045;-58
2022/07/15 02:12:02;;;;;;;22.80;4.60;;;;;;;;;;5047606;28;20100;-58
2022/07/15 02:14:28;;;;;;;13.03;3.43;;;;;;;;;;5047038;28;20051;-58
2022/07/15 02:16:55;;;;;;;12.27;2.87;;;;;;;;;;5047768;28;20041;-58
2022/07/15 02:19:21;;;;;;;7.50;3.23;;;;;;;;;;5047721;28;20063;-58
2022/07/15 02:21:47;;;;;;;9.13;3.20;;;;;;;;;;5047355;28;20048;-58
2022/07/15 02:24:14;;;;;;;12.20;3.47;;;;;;;;;;5047730;28;20136;-58
2022/07/15 02:26:40;;;;;;;11.27;3.00;;;;;;;;;;5047846;28;20098;-58
2022/07/15 02:29:07;;;;;;;11.27;2.97;;;;;;;;;;5047088;28;20049;-58
2022/07/15 02:31:34;;;;;;;12.40;3.40;;;;;;;;;;5047551;28;20045;-58
2022/07/15 02:34:00;;;;;;;12.50;3.00;;;;;;;;;;5047586;28;20083;-58
2022/07/15 02:36:27;;;;;;;14.57;3.00;;;;;;;;;;5047513;28;20044;-57
2022/07/15 02:38:53;;;;;;;9.67;3.30;;;;;;;;;;5047116;28;20091;-58
2022/07/15 02:41:19;;;;;;;10.57;3.70;;;;;;;;;;5047766;28;20080;-58
2022/07/15 02:43:45;;;;;;;6.70;3.00;;;;;;;;;;5047287;28;20115;-58
2022/07/15 02:46:11;;;;;;;16.20;3.30;;;;;;;;;;5047556;28;20049;-58
2022/07/15 02:48:37;;;;;;;16.97;4.10;;;;;;;;;;5047170;28;20098;-58
2022/07/15 02:51:04;;;;;;;15.07;3.80;;;;;;;;;;5050298;28;20049;-57
2022/07/15 02:53:30;;;;;;;13.47;4.40;;;;;;;;;;5051123;28;20517;-58
2022/07/15 02:55:59;;;;;;;7.67;3.87;;;;;;;;;;5051317;28;20048;-58
2022/07/15 02:58:26;;;;;;;9.80;3.23;;;;;;;;;;5050817;28;20637;-58
2022/07/15 03:00:52;;;;;;;11.37;3.80;;;;;;;;;;5051226;28;20049;-58
2022/07/15 03:03:18;;;;;;;13.87;4.37;;;;;;;;;;5051441;28;20144;-58
2022/07/15 03:05:44;;;;;;;10.70;4.07;;;;;;;;;;5050521;28;20044;-58
2022/07/15 03:08:10;;;;;;;17.30;4.87;;;;;;;;;;5050982;28;20410;-58
2022/07/15 03:10:36;;;;;;;16.47;4.97;;;;;;;;;;5051050;28;20052;-58
2022/07/15 03:13:02;;;;;;;13.40;5.87;;;;;;;;;;5050649;28;20040;-58
2022/07/15 03:15:28;;;;;;;18.40;5.97;;;;;;;;;;5050822;28;20101;-58
2022/07/15 03:17:54;;;;;;;17.03;5.30;;;;;;;;;;5050826;28;20087;-58
2022/07/15 03:20:21;;;;;;;13.80;5.30;;;;;;;;;;5050458;28;20461;-58
2022/07/15 03:22:47;;;;;;;15.63;5.30;;;;;;;;;;5050555;28;20041;-58
2022/07/15 03:25:13;;;;;;;11.80;4.80;;;;;;;;;;5050782;28;20045;-58
2022/07/15 03:27:39;;;;;;;18.47;5.63;;;;;;;;;;5050089;28;20063;-58
2022/07/15 03:30:05;;;;;;;19.40;5.70;;;;;;;;;;5050457;28;20049;-57
2022/07/15 03:32:32;;;;;;;16.93;5.63;;;;;;;;;;5050775;28;20067;-57
2022/07/15 03:34:58;;;;;;;18.13;5.77;;;;;;;;;;5050358;28;20049;-57
2022/07/15 03:37:25;;;;;;;17.50;6.00;;;;;;;;;;5050173;28;20044;-57
2022/07/15 03:39:51;;;;;;;15.93;6.30;;;;;;;;;;5050357;28;20102;-57
2022/07/15 03:42:17;;;;;;;22.20;6.30;;;;;;;;;;5049973;28;20962;-57
2022/07/15 03:44:43;;;;;;;12.33;5.77;;;;;;;;;;5049962;28;20095;-57
2022/07/15 03:47:09;;;;;;;15.93;6.43;;;;;;;;;;5049916;28;20594;-57
2022/07/15 03:49:35;;;;;;;21.67;8.00;;;;;;;;;;5050175;28;20142;-57
2022/07/15 03:52:01;;;;;;;20.87;7.23;;;;;;;;;;5049273;28;20178;-57
2022/07/15 03:54:27;;;;;;;11.53;6.00;;;;;;;;;;5050061;28;20045;-57
2022/07/15 03:56:53;;;;;;;21.20;6.60;;;;;;;;;;5050192;28;20037;-57
2022/07/15 03:59:23;;;;;;;21.00;7.13;;;;;;;;;;5049995;28;20052;-57
2022/07/15 04:01:49;;;;;;;20.63;6.33;;;;;;;;;;5048061;28;20048;-57
2022/07/15 04:04:15;;;;;;;19.63;8.10;;;;;;;;;;5050067;28;20037;-57
2022/07/15 04:06:41;;;;;;;16.63;7.00;;;;;;;;;;5049624;28;20048;-57
2022/07/15 04:09:09;;;;;;;15.67;7.00;;;;;;;;;;5049319;28;20047;-57
2022/07/15 04:11:36;;;;;;;20.20;6.83;;;;;;;;;;5049354;28;20056;-58
2022/07/15 04:14:02;;;;;;;18.33;7.23;;;;;;;;;;5049258;28;20041;-57
2022/07/15 04:16:28;;;;;;;15.90;6.00;;;;;;;;;;5049555;28;20037;-58
2022/07/15 04:18:54;;;;;;;22.17;7.20;;;;;;;;;;5049581;28;20056;-57
2022/07/15 04:21:20;;;;;;;11.00;4.73;;;;;;;;;;5049535;28;20045;-58
2022/07/15 04:23:46;;;;;;;12.53;5.63;;;;;;;;;;5048800;28;20049;-57
2022/07/15 04:26:12;;;;;;;20.37;5.93;;;;;;;;;;5049312;28;20059;-57
2022/07/15 04:28:38;;;;;;;17.23;6.37;;;;;;;;;;5049409;28;20069;-57
2022/07/15 04:31:05;;;;;;;20.90;7.23;;;;;;;;;;5049156;28;20064;-58
2022/07/15 04:33:31;;;;;;;15.17;5.90;;;;;;;;;;5049279;28;20529;-57
2022/07/15 04:35:57;;;;;;;18.53;6.07;;;;;;;;;;5048866;28;20041;-58
2022/07/15 04:38:23;;;;;;;19.40;6.13;;;;;;;;;;5049259;28;20127;-57
2022/07/15 04:40:49;;;;;;;24.17;5.87;;;;;;;;;;5048921;28;20041;-57
2022/07/15 04:43:15;;;;;;;16.83;5.80;;;;;;;;;;5049002;28;20431;-58
2022/07/15 04:45:41;;;;;;;14.93;5.10;;;;;;;;;;5048686;28;20056;-57
2022/07/15 04:50:45;;;;;;;12.50;4.73;;;;;;;;;;5048740;28;20144;-58
2022/07/15 04:50:53;;;;;;;14.17;5.20;;;;;;;;;;5048142;28;20423;-57
2022/07/15 04:53:19;;;;;;;17.57;5.07;;;;;;;;;;5049187;28;20049;-57
2022/07/15 04:55:46;;;;;;;11.70;4.63;;;;;;;;;;5048722;28;20041;-57
2022/07/15 04:58:14;;;;;;;8.77;4.33;;;;;;;;;;5048619;28;20076;-57
2022/07/15 05:00:41;;;;;;;13.00;4.73;;;;;;;;;;5049062;28;20059;-57
2022/07/15 05:03:07;;;;;;;10.93;4.00;;;;;;;;;;5048478;28;20056;-57
2022/07/15 05:05:33;;;;;;;16.60;5.93;;;;;;;;;;5048498;28;20048;-58
2022/07/15 05:07:59;;;;;;;22.33;5.40;;;;;;;;;;5048459;28;20629;-58
2022/07/15 05:10:25;;;;;;;14.50;4.17;;;;;;;;;;5048659;28;20055;-58
2022/07/15 05:12:51;;;;;;;12.30;5.10;;;;;;;;;;5048298;28;20040;-57
2022/07/15 05:15:17;;;;;;;16.03;4.23;;;;;;;;;;5048863;28;20048;-57
2022/07/15 05:17:43;;;;;;;13.60;4.57;;;;;;;;;;5047615;28;20485;-58
2022/07/15 05:20:09;;;;;;;10.00;3.43;;;;;;;;;;5048522;28;20052;-58
2022/07/15 05:22:35;;;;;;;9.20;3.47;;;;;;;;;;5048512;28;20041;-57
2022/07/15 05:25:01;;;;;;;8.40;3.60;;;;;;;;;;5047836;28;20113;-58
2022/07/15 05:27:27;;;;;;;9.70;3.27;;;;;;;;;;5048209;28;20045;-58
2022/07/15 05:29:53;;;;;;;8.37;2.40;;;;;;;;;;5048406;28;20097;-58
2022/07/15 05:32:19;;;;;;;7.30;2.57;;;;;;;;;;5048056;28;20052;-58
2022/07/15 05:34:46;;;;;;;9.33;2.43;;;;;;;;;;5048030;28;20044;-58
2022/07/15 05:37:12;;;;;;;10.50;1.93;;;;;;;;;;5048069;28;20499;-58
2022/07/15 05:39:53;;;;;;;7.53;1.90;;;;;;;;;;5048101;28;20040;-58
2022/07/15 05:42:19;;;;;;;7.97;1.60;;;;;;;;;;5048115;28;20061;-58
2022/07/15 05:44:45;;;;;;;9.07;2.00;;;;;;;;;;5047632;28;20521;-58
2022/07/15 05:47:11;;;;;;;8.37;1.80;;;;;;;;;;5047767;28;20049;-58
2022/07/15 05:49:37;;;;;;;7.50;1.80;;;;;;;;;;5048075;28;20045;-58
2022/07/15 05:52:03;;;;;;;7.77;1.70;;;;;;;;;;5047632;28;20457;-58
2022/07/15 05:54:29;;;;;;;6.07;1.40;;;;;;;;;;5047670;28;20144;-58
2022/07/15 05:56:55;;;;;;;6.37;1.43;;;;;;;;;;5047911;28;20045;-58
2022/07/15 05:59:22;;;;;;;8.93;1.70;;;;;;;;;;5048067;28;20339;-58
2022/07/15 06:01:48;;;;;;;6.77;2.03;;;;;;;;;;5047552;28;20044;-58
2022/07/15 06:04:14;;;;;;;2.77;1.23;;;;;;;;;;5047526;28;20056;-58
2022/07/15 06:06:40;;;;;;;3.97;1.23;;;;;;;;;;5047634;28;20049;-58
2022/07/15 06:09:06;;;;;;;8.60;1.80;;;;;;;;;;5047363;28;20419;-58
2022/07/15 06:11:33;;;;;;;5.47;1.40;;;;;;;;;;5047721;28;20487;-58
2022/07/15 06:14:01;;;;;;;3.60;1.30;;;;;;;;;;5047079;28;20408;-58
2022/07/15 06:16:27;;;;;;;3.73;1.20;;;;;;;;;;5047613;28;20369;-58
2022/07/15 06:18:53;;;;;;;5.23;1.47;;;;;;;;;;5047380;28;20474;-58
2022/07/15 06:21:19;;;;;;;4.10;1.20;;;;;;;;;;5047794;28;20140;-59
2022/07/15 06:23:45;;;;;;;5.67;1.33;;;;;;;;;;5047424;28;20045;-58
2022/07/15 06:26:11;;;;;;;3.50;0.70;;;;;;;;;;5050334;28;20044;-58
2022/07/15 06:28:37;;;;;;;6.57;0.90;;;;;;;;;;5051619;28;20410;-58
2022/07/15 06:31:03;;;;;;;4.57;1.27;;;;;;;;;;5051403;28;20059;-58
2022/07/15 06:33:29;;;;;;;4.17;0.60;;;;;;;;;;5051243;28;20056;-58
2022/07/15 06:35:55;;;;;;;3.07;0.90;;;;;;;;;;5051269;28;20111;-58
2022/07/15 06:38:21;;;;;;;4.97;1.23;;;;;;;;;;5051386;28;20037;-58
2022/07/15 06:40:47;;;;;;;4.27;0.93;;;;;;;;;;5051128;28;20061;-58
2022/07/15 06:43:13;;;;;;;3.00;0.90;;;;;;;;;;5051263;28;20056;-58
2022/07/15 06:45:39;;;;;;;2.63;0.50;;;;;;;;;;5051178;28;20053;-58
2022/07/15 06:48:06;;;;;;;2.67;0.40;;;;;;;;;;5050999;28;20059;-58
2022/07/15 06:50:32;;;;;;;4.27;0.50;;;;;;;;;;5051251;28;20057;-58
2022/07/15 06:52:58;;;;;;;4.17;0.60;;;;;;;;;;5051157;28;20052;-57
2022/07/15 06:55:25;;;;;;;1.90;0.40;;;;;;;;;;5051264;28;20529;-58
2022/07/15 06:57:51;;;;;;;5.03;0.60;;;;;;;;;;5050811;28;20052;-58
2022/07/15 07:00:17;;;;;;;2.33;0.57;;;;;;;;;;5050693;28;20060;-58
2022/07/15 07:02:44;;;;;;;2.90;0.60;;;;;;;;;;5050954;28;20491;-58
2022/07/15 07:05:10;;;;;;;3.10;0.67;;;;;;;;;;5051024;28;20101;-58
2022/07/15 07:07:36;;;;;;;4.23;0.73;;;;;;;;;;5050766;28;20049;-58
2022/07/15 07:10:03;;;;;;;3.90;0.60;;;;;;;;;;5050354;28;20449;-58
2022/07/15 07:12:29;;;;;;;3.83;0.50;;;;;;;;;;5050702;28;20506;-58
2022/07/15 07:14:55;;;;;;;2.50;0.50;;;;;;;;;;5050815;28;20056;-58
2022/07/15 07:17:21;;;;;;;2.50;0.40;;;;;;;;;;5050643;28;20049;-58
2022/07/15 07:19:48;;;;;;;1.33;0.33;;;;;;;;;;5049966;28;20055;-58
2022/07/15 07:22:14;;;;;;;2.57;0.50;;;;;;;;;;5050780;28;20195;-58
2022/07/15 07:24:40;;;;;;;1.37;0.30;;;;;;;;;;5050722;28;20053;-58
2022/07/15 07:27:06;;;;;;;2.93;0.70;;;;;;;;;;5050443;28;20503;-58
2022/07/15 07:29:32;;;;;;;3.17;0.43;;;;;;;;;;5050405;28;20084;-58
2022/07/15 07:31:58;;;;;;;2.30;0.60;;;;;;;;;;5050696;28;20380;-58
2022/07/15 07:34:24;;;;;;;2.27;0.40;;;;;;;;;;5049849;28;20048;-58
2022/07/15 07:36:50;;;;;;;3.93;0.47;;;;;;;;;;5050035;28;20047;-58
2022/07/15 07:39:16;;;;;;;5.10;0.63;;;;;;;;;;5050456;28;20048;-58
2022/07/15 07:41:42;;;;;;;1.63;0.40;;;;;;;;;;5050050;28;20102;-58
2022/07/15 07:44:08;;;;;;;4.23;0.33;;;;;;;;;;5049909;28;20067;-57
2022/07/15 07:46:35;;;;;;;2.80;0.33;;;;;;;;;;5049667;28;20556;-58
2022/07/15 07:49:01;;;;;;;1.67;0.40;;;;;;;;;;5050307;28;20056;-58
2022/07/15 07:51:27;;;;;;;2.53;0.40;;;;;;;;;;5050130;28;20049;-58
2022/07/15 07:53:53;;;;;;;2.13;0.40;;;;;;;;;;5050291;28;20056;-58
2022/07/15 07:56:19;;;;;;;1.07;0.23;;;;;;;;;;5050136;28;20072;-58
2022/07/15 07:58:45;;;;;;;1.73;0.30;;;;;;;;;;5049381;28;20431;-58
2022/07/15 08:01:11;;;;;;;3.07;0.40;;;;;;;;;;5049628;28;20063;-58
2022/07/15 08:03:37;;;;;;;2.53;0.40;;;;;;;;;;5049923;28;20057;-58
2022/07/15 08:06:04;;;;;;;1.60;0.30;;;;;;;;;;5049559;28;20053;-58
2022/07/15 08:08:30;;;;;;;0.47;0.20;;;;;;;;;;5049007;28;20045;-58
2022/07/15 08:10:56;;;;;;;4.17;1.33;;;;;;;;;;5049374;28;20037;-58
2022/07/15 08:13:24;;;;;;;0.60;0.30;;;;;;;;;;5049885;28;20045;-57
2022/07/15 08:15:51;;;;;;;1.97;0.50;;;;;;;;;;5049609;28;20037;-57
2022/07/15 08:18:17;;;;;;;1.37;0.40;;;;;;;;;;5049605;28;20041;-57
2022/07/15 08:20:43;;;;;;;3.07;0.40;;;;;;;;;;5049214;28;20500;-57
2022/07/15 08:23:10;;;;;;;1.27;0.23;;;;;;;;;;5048881;28;20418;-58
2022/07/15 08:25:37;;;;;;;1.40;0.40;;;;;;;;;;5049541;28;20049;-58
2022/07/15 08:28:04;;;;;;;2.00;0.20;;;;;;;;;;5049046;28;20584;-58
2022/07/15 08:30:30;;;;;;;3.60;0.50;;;;;;;;;;5049254;28;20123;-58
2022/07/15 08:32:57;;;;;;;1.27;0.50;;;;;;;;;;5048828;28;20040;-57
2022/07/15 08:35:23;;;;;;;1.50;0.30;;;;;;;;;;5049290;28;20045;-57
2022/07/15 08:37:49;;;;;;;2.63;0.60;;;;;;;;;;5048981;28;20063;-57
2022/07/15 08:40:16;;;;;;;1.27;0.30;;;;;;;;;;5048948;28;20330;-57
2022/07/15 08:42:45;;;;;;;3.67;0.60;;;;;;;;;;5049037;28;20057;-58
2022/07/15 08:45:12;;;;;;;3.00;0.20;;;;;;;;;;5048321;28;21967;-57
2022/07/15 08:47:39;;;;;;;2.47;0.63;;;;;;;;;;5048535;28;20041;-58
2022/07/15 08:50:05;;;;;;;1.60;0.40;;;;;;;;;;5048787;28;20033;-58
2022/07/15 08:52:33;;;;;;;1.23;0.30;;;;;;;;;;5048290;28;20102;-57
2022/07/15 08:54:59;;;;;;;2.17;0.40;;;;;;;;;;5048827;28;20044;-57
2022/07/15 08:57:26;;;;;;;3.00;0.40;;;;;;;;;;5048572;28;21089;-57
2022/07/15 08:59:52;;;;;;;0.93;0.30;;;;;;;;;;5048637;28;20049;-57
2022/07/15 09:02:21;;;;;;;1.57;0.37;;;;;;;;;;5048706;28;20080;-58
2022/07/15 09:05:06;;;;;;;1.63;0.30;;;;;;;;;;5048719;28;20135;-58
2022/07/15 09:07:50;;;;;;;1.43;0.50;;;;;;;;;;5047977;28;20060;-58
2022/07/15 09:10:16;;;;;;;0.70;0.30;;;;;;;;;;5048681;28;20500;-57
2022/07/15 09:12:42;;;;;;;2.20;0.30;;;;;;;;;;5048277;28;20135;-58
2022/07/15 09:15:08;;;;;;;1.23;0.30;;;;;;;;;;5048289;28;20529;-57
2022/07/15 09:17:35;;;;;;;1.30;0.40;;;;;;;;;;5048508;28;20041;-58
2022/07/15 09:20:13;;;;;;;1.70;0.20;;;;;;;;;;5047952;28;20055;-58
2022/07/15 09:22:52;;;;;;;0.97;0.30;;;;;;;;;;5048426;28;20519;-58
2022/07/15 09:25:19;;;;;;;1.07;0.30;;;;;;;;;;5048442;28;20048;-57
2022/07/15 09:27:45;;;;;;;1.17;0.20;;;;;;;;;;5047211;28;20084;-58
2022/07/15 09:36:14;;;;;;;2.03;0.40;;;;;;;;;;5048239;28;20044;-58
2022/07/15 09:38:42;;;;;;;2.73;0.50;;;;;;;;;;5048337;28;20454;-58
2022/07/15 09:41:27;;;;;;;1.50;0.30;;;;;;;;;;5048031;28;20060;-58
2022/07/15 09:43:57;;;;;;;2.77;0.50;;;;;;;;;;5047700;28;20056;-57
2022/07/15 09:46:26;;;;;;;1.30;0.30;;;;;;;;;;5047499;28;20049;-57
2022/07/15 09:48:52;;;;;;;2.77;0.40;;;;;;;;;;5047741;28;20049;-57
2022/07/15 09:51:19;;;;;;;0.35;0.10;;;;;;;;;;5047873;28;20582;-58
2022/07/15 09:53:45;;;;;;;0.75;0.30;;;;;;;;;;5047608;28;20041;-58
2022/07/15 09:56:13;;;;;;;0.57;0.20;;;;;;;;;;5047480;28;20505;-58
2022/07/15 09:58:40;;;;;;;0.85;0.30;;;;;;;;;;5047657;28;20041;-58
2022/07/15 10:01:08;;;;;;;1.05;0.30;;;;;;;;;;5047193;28;20041;-58
2022/07/15 10:03:34;;;;;;;1.15;0.43;;;;;;;;;;5047804;28;20088;-58
2022/07/15 10:06:01;;;;;;;1.15;0.43;;;;;;;;;;5047677;28;20076;-57
2022/07/15 10:08:28;;;;;;;1.58;0.63;;;;;;;;;;5047581;28;20045;-58
2022/07/15 10:10:56;;;;;;;1.08;0.47;;;;;;;;;;5047249;28;20083;-58
2022/07/15 10:13:31;;;;;;;1.95;0.50;;;;;;;;;;5047476;28;20164;-58
2022/07/15 10:16:16;;;;;;;2.05;0.55;;;;;;;;;;5047593;28;20041;-58
2022/07/15 10:19:06;;;;;;;4.55;0.63;;;;;;;;;;5047914;28;20508;-58
2022/07/15 10:21:45;;;;;;;1.77;0.40;;;;;;;;;;5047293;28;20102;-58
2022/07/15 10:24:24;;;;;;;1.37;0.43;;;;;;;;;;5047414;28;20511;-58
2022/07/15 10:27:03;;;;;;;2.17;0.45;;;;;;;;;;5047269;28;20059;-58
2022/07/15 10:29:30;;;;;;;0.68;0.30;;;;;;;;;;5047491;28;20094;-58
2022/07/15 10:31:58;;;;;;;4.18;0.80;;;;;;;;;;5047470;28;20081;-58
2022/07/15 10:34:28;;;;;;;3.58;0.60;;;;;;;;;;5047338;28;20103;-59
2022/07/15 10:36:57;;;;;;;3.85;0.70;;;;;;;;;;5047669;28;20120;-58
2022/07/15 10:39:25;;;;;;;3.70;0.60;;;;;;;;;;5047134;28;20488;-58
2022/07/15 10:41:52;;;;;;;3.03;0.85;;;;;;;;;;5046569;28;20049;-58
2022/07/15 10:44:18;;;;;;;1.45;0.50;;;;;;;;;;5047302;28;20344;-59
2022/07/15 10:46:44;;;;;;;0.98;0.38;;;;;;;;;;5047077;28;20416;-59
2022/07/15 10:49:10;;;;;;;1.45;0.50;;;;;;;;;;5046943;28;20055;-58
2022/07/15 10:51:36;;;;;;;3.80;0.50;;;;;;;;;;5047746;28;20059;-58
2022/07/15 10:54:03;;;;;;;2.73;0.80;;;;;;;;;;5046564;28;20506;-58
2022/07/15 10:56:29;;;;;;;1.73;0.50;;;;;;;;;;5047265;28;20460;-58
2022/07/15 10:59:11;;;;;;;3.10;0.40;;;;;;;;;;5047230;28;20057;-58
2022/07/15 11:01:38;;;;;;;2.67;0.77;;;;;;;;;;5046907;28;20041;-58
2022/07/15 11:04:12;;;;;;;2.43;0.57;;;;;;;;;;5047517;28;20116;-58
2022/07/15 11:06:57;;;;;;;0.93;0.30;;;;;;;;;;5047258;28;20041;-58
2022/07/15 11:09:42;;;;;;;1.77;0.50;;;;;;;;;;5046965;28;20056;-58
2022/07/15 11:12:08;;;;;;;3.20;0.53;;;;;;;;;;5049631;28;20478;-58
2022/07/15 11:14:54;;;;;;;2.33;0.50;;;;;;;;;;5050761;28;20037;-58
2022/07/15 11:17:29;;;;;;;3.10;0.90;;;;;;;;;;5051179;28;20124;-58
2022/07/15 11:19:59;;;;;;;3.97;0.60;;;;;;;;;;5051350;28;20116;-58
2022/07/15 11:22:27;;;;;;;2.60;0.40;;;;;;;;;;5050636;28;20143;-58
2022/07/15 11:24:54;;;;;;;3.33;0.40;;;;;;;;;;5050552;28;20419;-58
2022/07/15 11:27:21;;;;;;;1.55;0.50;;;;;;;;;;5050587;28;20502;-59
2022/07/15 11:29:54;;;;;;;2.03;0.60;;;;;;;;;;5050885;28;20076;-58
2022/07/15 11:32:21;;;;;;;1.40;0.50;;;;;;;;;;5050638;28;20103;-59
2022/07/15 11:34:48;;;;;;;2.20;0.75;;;;;;;;;;5050522;28;20049;-58
2022/07/15 11:37:18;;;;;;;2.42;0.60;;;;;;;;;;5050853;28;20045;-59
2022/07/15 11:39:46;;;;;;;2.67;0.52;;;;;;;;;;5050367;28;20091;-59
2022/07/15 11:45:03;;;;;;;3.03;0.50;;;;;;;;;;5049744;28;20136;-59
2022/07/15 11:47:29;;;;;;;2.75;0.82;;;;;;;;;;5050088;28;20055;-59
2022/07/15 11:49:59;;;;;;;4.22;0.70;;;;;;;;;;5049913;28;20045;-59
2022/07/15 11:52:26;;;;;;;2.50;0.50;;;;;;;;;;5050197;28;20080;-59
2022/07/15 11:54:52;;;;;;;1.98;0.60;;;;;;;;;;5049751;28;20422;-59
2022/07/15 11:57:18;;;;;;;0.82;0.52;;;;;;;;;;5049378;28;20049;-59
2022/07/15 11:59:51;;;;;;;2.40;0.60;;;;;;;;;;5050085;28;20140;-59
2022/07/15 12:02:18;;;;;;;1.77;0.85;;;;;;;;;;5050387;28;20059;-58
2022/07/15 12:04:44;;;;;;;2.83;0.80;;;;;;;;;;5049832;28;20044;-59
2022/07/15 12:07:10;;;;;;;3.33;0.75;;;;;;;;;;5049853;28;20129;-59
2022/07/15 12:09:47;;;;;;;1.75;0.60;;;;;;;;;;5049335;28;20132;-59
2022/07/15 12:12:13;;;;;;;3.25;0.57;;;;;;;;;;5049641;28;20041;-59
2022/07/15 12:14:39;;;;;;;4.03;0.98;;;;;;;;;;5049506;28;20051;-59
2022/07/15 12:17:05;;;;;;;2.55;0.70;;;;;;;;;;5049568;28;20077;-59
2022/07/15 12:19:33;;;;;;;3.78;0.70;;;;;;;;;;5049730;28;20064;-59
2022/07/15 12:22:07;;;;;;;2.60;0.52;;;;;;;;;;5049042;28;20608;-59
2022/07/15 12:24:39;;;;;;;2.58;0.60;;;;;;;;;;5049247;28;20059;-58
2022/07/15 12:27:05;;;;;;;2.63;0.50;;;;;;;;;;5049270;28;20085;-59
2022/07/15 12:29:32;;;;;;;3.15;0.80;;;;;;;;;;5049385;28;20055;-59
2022/07/15 12:32:00;;;;;;;1.05;0.40;;;;;;;;;;5049716;28;20052;-58
2022/07/15 12:34:46;;;;;;;3.17;0.45;;;;;;;;;;5049205;28;21344;-58
2022/07/15 12:37:13;;;;;;;2.08;0.45;;;;;;;;;;5045280;28;20059;-58
2022/07/15 12:39:54;;;;;;;1.52;0.45;;;;;;;;;;5049207;28;20072;-58
2022/07/15 12:42:20;;;;;;;2.03;0.57;;;;;;;;;;5049211;28;20163;-58
2022/07/15 12:44:46;;;;;;;2.72;0.70;;;;;;;;;;5049091;28;20530;-59
2022/07/15 12:47:15;;;;;;;3.20;0.43;;;;;;;;;;5049080;28;20045;-58
2022/07/15 12:49:42;;;;;;;2.15;0.60;;;;;;;;;;5048981;28;20041;-58
2022/07/15 12:52:12;;;;;;;1.30;0.32;;;;;;;;;;5048925;28;20056;-58
2022/07/15 12:54:38;;;;;;;1.38;0.45;;;;;;;;;;5049073;28;20048;-58
2022/07/15 12:57:04;;;;;;;3.35;0.60;;;;;;;;;;5048610;28;20049;-58
2022/07/15 12:59:30;;;;;;;3.47;0.70;;;;;;;;;;5049072;28;20057;-58
2022/07/15 13:02:05;;;;;;;2.35;0.50;;;;;;;;;;5048807;28;20597;-58
2022/07/15 13:04:31;;;;;;;2.35;0.55;;;;;;;;;;5048388;28;20761;-59
2022/07/15 13:06:57;;;;;;;3.30;0.70;;;;;;;;;;5048702;28;20142;-59
2022/07/15 13:09:23;;;;;;;3.03;0.50;;;;;;;;;;5048519;28;20202;-58
2022/07/15 13:12:00;;;;;;;3.88;0.68;;;;;;;;;;5048345;28;20663;-58
2022/07/15 13:14:26;;;;;;;2.03;0.60;;;;;;;;;;5048496;28;20426;-60
2022/07/15 13:16:52;;;;;;;3.03;0.45;;;;;;;;;;5048583;28;20052;-59
2022/07/15 13:19:18;;;;;;;1.38;0.55;;;;;;;;;;5048843;28;20041;-59
2022/07/15 13:21:44;;;;;;;2.50;0.70;;;;;;;;;;5048241;28;20052;-59
2022/07/15 13:24:10;;;;;;;3.00;0.60;;;;;;;;;;5048250;28;20049;-59
2022/07/15 13:26:36;;;;;;;2.17;0.52;;;;;;;;;;5048467;28;20083;-59
2022/07/15 13:29:03;;;;;;;2.03;0.45;;;;;;;;;;5048072;28;20048;-60
2022/07/15 13:31:29;;;;;;;2.53;0.68;;;;;;;;;;5048095;28;20611;-59
2022/07/15 13:33:55;;;;;;;2.80;0.60;;;;;;;;;;5048693;28;20128;-59
2022/07/15 13:36:22;;;;;;;2.80;0.70;;;;;;;;;;5048375;28;20053;-59
2022/07/15 13:38:48;;;;;;;1.65;0.50;;;;;;;;;;5047799;28;20123;-60
2022/07/15 13:41:14;;;;;;;1.48;0.40;;;;;;;;;;5048349;28;20475;-59
2022/07/15 13:43:40;;;;;;;2.28;0.40;;;;;;;;;;5048155;28;20063;-59
2022/07/15 13:46:06;;;;;;;1.77;0.50;;;;;;;;;;5047748;28;20057;-59
2022/07/15 13:48:32;;;;;;;1.55;0.52;;;;;;;;;;5048252;28;20047;-60
2022/07/15 13:53:54;;;;;;;1.50;0.40;;;;;;;;;;5042563;28;20197;-59
2022/07/15 13:56:21;;;;;;;1.20;0.55;;;;;;;;;;5048046;28;20131;-59
2022/07/15 13:58:48;;;;;;;1.30;0.40;;;;;;;;;;5047971;28;20090;-59
2022/07/15 14:01:14;;;;;;;3.28;0.57;;;;;;;;;;5047540;28;20049;-59
2022/07/15 14:03:40;;;;;;;2.25;0.70;;;;;;;;;;5048389;28;20044;-59
2022/07/15 14:06:07;;;;;;;1.52;0.50;;;;;;;;;;5047719;28;20174;-59
2022/07/15 14:08:33;;;;;;;2.67;0.50;;;;;;;;;;5047612;28;20048;-59
2022/07/15 14:10:59;;;;;;;4.28;0.70;;;;;;;;;;5047325;28;20136;-59
2022/07/15 14:13:25;;;;;;;1.13;0.50;;;;;;;;;;5046949;28;20131;-59
2022/07/15 14:15:51;;;;;;;2.17;0.60;;;;;;;;;;5047507;28;20041;-59
2022/07/15 14:18:17;;;;;;;3.08;0.45;;;;;;;;;;5047692;28;20056;-59
2022/07/15 14:20:45;;;;;;;3.40;0.60;;;;;;;;;;5047638;28;20067;-59
2022/07/15 14:23:12;;;;;;;2.35;0.40;;;;;;;;;;5047017;28;20056;-60
2022/07/15 14:25:38;;;;;;;4.35;0.40;;;;;;;;;;5047460;28;20041;-59
2022/07/15 14:28:04;;;;;;;2.55;0.60;;;;;;;;;;5047616;28;20053;-59
2022/07/15 14:30:30;;;;;;;2.83;0.60;;;;;;;;;;5047546;28;20037;-58
2022/07/15 14:32:57;;;;;;;3.00;0.50;;;;;;;;;;5047399;28;20041;-59
2022/07/15 14:35:23;;;;;;;2.72;0.40;;;;;;;;;;5046902;28;20049;-59
2022/07/15 14:37:49;;;;;;;1.02;0.50;;;;;;;;;;5047471;28;20119;-59
2022/07/15 14:40:16;;;;;;;3.08;0.73;;;;;;;;;;5047290;28;20045;-59
2022/07/15 14:42:42;;;;;;;2.03;0.55;;;;;;;;;;5047446;28;20504;-59
2022/07/15 14:45:08;;;;;;;6.05;0.68;;;;;;;;;;5047356;28;20041;-60
2022/07/15 14:47:34;;;;;;;1.85;0.50;;;;;;;;;;5050900;28;20048;-59
2022/07/15 14:50:00;;;;;;;1.98;0.60;;;;;;;;;;5051107;28;20045;-59
2022/07/15 14:52:26;;;;;;;3.50;1.13;;;;;;;;;;5051334;28;20091;-59
2022/07/15 14:54:52;;;;;;;3.35;0.85;;;;;;;;;;5051073;28;20084;-59